sensor_id;sensor_type;location;lat;lon;timestamp;pressure;altitude;pressure_sealevel;temperature;humidity
32456;BME280;18912;43.270;27.942;2022-12-10T00:00:52;97634.41;;;19.79;74.40
32456;BME280;18912;43.270;27.942;2022-12-10T00:03:18;97637.97;;;19.74;74.45
32456;BME280;18912;43.270;27.942;2022-12-10T00:05:43;97629.50;;;19.71;73.96
32456;BME280;18912;43.270;27.942;2022-12-10T00:08:08;97626.72;;;19.76;74.50
32456;BME280;18912;43.270;27.942;2022-12-10T00:10:38;97628.69;;;19.65;74.98
32456;BME280;18912;43.270;27.942;2022-12-10T00:13:04;97637.72;;;19.25;76.01
32456;BME280;18912;43.270;27.942;2022-12-10T00:15:29;97627.59;;;19.46;75.63
32456;BME280;18912;43.270;27.942;2022-12-10T00:17:55;97626.53;;;19.37;76.11
32456;BME280;18912;43.270;27.942;2022-12-10T00:20:20;97630.84;;;19.68;74.36
32456;BME280;18912;43.270;27.942;2022-12-10T00:22:46;97618.22;;;19.92;73.15
32456;BME280;18912;43.270;27.942;2022-12-10T00:25:11;97618.28;;;19.52;75.04
32456;BME280;18912;43.270;27.942;2022-12-10T00:27:37;97608.59;;;19.90;73.32
32456;BME280;18912;43.270;27.942;2022-12-10T00:30:06;97617.16;;;19.68;73.78
32456;BME280;18912;43.270;27.942;2022-12-10T00:32:31;97620.47;;;19.55;74.40
32456;BME280;18912;43.270;27.942;2022-12-10T00:34:57;97616.09;;;19.54;73.85
32456;BME280;18912;43.270;27.942;2022-12-10T00:37:22;97606.19;;;19.68;73.72
32456;BME280;18912;43.270;27.942;2022-12-10T00:39:48;97602.28;;;19.99;72.21
32456;BME280;18912;43.270;27.942;2022-12-10T00:42:13;97602.34;;;19.69;73.84
32456;BME280;18912;43.270;27.942;2022-12-10T00:44:38;97608.38;;;19.71;73.46
32456;BME280;18912;43.270;27.942;2022-12-10T00:47:04;97613.03;;;19.71;73.46
32456;BME280;18912;43.270;27.942;2022-12-10T00:49:29;97602.38;;;19.64;74.06
32456;BME280;18912;43.270;27.942;2022-12-10T00:51:55;97589.59;;;20.13;71.42
32456;BME280;18912;43.270;27.942;2022-12-10T00:54:20;97592.91;;;20.10;71.51
32456;BME280;18912;43.270;27.942;2022-12-10T00:56:46;97592.97;;;19.90;72.48
32456;BME280;18912;43.270;27.942;2022-12-10T00:59:12;97595.50;;;19.72;72.99
32456;BME280;18912;43.270;27.942;2022-12-10T01:01:40;97588.00;;;19.97;71.70
32456;BME280;18912;43.270;27.942;2022-12-10T01:04:10;97581.38;;;20.13;71.33
32456;BME280;18912;43.270;27.942;2022-12-10T01:06:41;97584.78;;;19.80;73.12
32456;BME280;18912;43.270;27.942;2022-12-10T01:09:10;97580.28;;;20.09;71.29
32456;BME280;18912;43.270;27.942;2022-12-10T01:11:39;97578.69;;;19.93;72.28
32456;BME280;18912;43.270;27.942;2022-12-10T01:14:07;97585.66;;;19.66;73.14
32456;BME280;18912;43.270;27.942;2022-12-10T01:16:33;97573.31;;;19.53;73.54
32456;BME280;18912;43.270;27.942;2022-12-10T01:18:59;97567.75;;;19.88;71.91
32456;BME280;18912;43.270;27.942;2022-12-10T01:21:27;97564.78;;;19.75;71.82
32456;BME280;18912;43.270;27.942;2022-12-10T01:23:53;97561.03;;;19.10;75.46
32456;BME280;18912;43.270;27.942;2022-12-10T01:26:22;97564.28;;;19.52;73.98
32456;BME280;18912;43.270;27.942;2022-12-10T01:28:48;97567.56;;;19.39;74.40
32456;BME280;18912;43.270;27.942;2022-12-10T01:31:18;97567.28;;;19.51;74.53
32456;BME280;18912;43.270;27.942;2022-12-10T01:33:45;97561.56;;;19.52;74.11
32456;BME280;18912;43.270;27.942;2022-12-10T01:36:17;97550.81;;;19.61;73.85
32456;BME280;18912;43.270;27.942;2022-12-10T01:38:43;97550.78;;;19.76;73.37
32456;BME280;18912;43.270;27.942;2022-12-10T01:41:15;97552.06;;;19.99;72.71
32456;BME280;18912;43.270;27.942;2022-12-10T01:46:41;97548.00;;;19.86;72.67
32456;BME280;18912;43.270;27.942;2022-12-10T01:49:12;97543.72;;;19.50;72.88
32456;BME280;18912;43.270;27.942;2022-12-10T01:51:41;97546.19;;;19.26;75.05
32456;BME280;18912;43.270;27.942;2022-12-10T01:54:12;97529.47;;;19.58;73.44
32456;BME280;18912;43.270;27.942;2022-12-10T01:56:42;97524.78;;;19.64;73.81
32456;BME280;18912;43.270;27.942;2022-12-10T01:59:09;97521.13;;;19.83;72.62
32456;BME280;18912;43.270;27.942;2022-12-10T02:06:45;97526.28;;;19.95;71.04
32456;BME280;18912;43.270;27.942;2022-12-10T02:14:27;97511.91;;;19.59;72.61
32456;BME280;18912;43.270;27.942;2022-12-10T02:16:59;97504.78;;;19.53;73.54
32456;BME280;18912;43.270;27.942;2022-12-10T02:19:47;97515.09;;;19.86;71.70
32456;BME280;18912;43.270;27.942;2022-12-10T02:22:17;97512.38;;;19.81;72.17
32456;BME280;18912;43.270;27.942;2022-12-10T02:24:47;97511.44;;;20.06;71.21
32456;BME280;18912;43.270;27.942;2022-12-10T02:27:23;97505.47;;;19.94;71.35
32456;BME280;18912;43.270;27.942;2022-12-10T02:29:51;97502.69;;;20.04;71.80
32456;BME280;18912;43.270;27.942;2022-12-10T02:32:22;97503.63;;;19.79;72.91
32456;BME280;18912;43.270;27.942;2022-12-10T02:34:54;97496.97;;;19.85;72.38
32456;BME280;18912;43.270;27.942;2022-12-10T02:37:30;97492.88;;;19.88;72.43
32456;BME280;18912;43.270;27.942;2022-12-10T02:39:59;97507.41;;;19.88;71.69
32456;BME280;18912;43.270;27.942;2022-12-10T02:42:29;97500.88;;;19.74;73.91
32456;BME280;18912;43.270;27.942;2022-12-10T02:44:56;97500.25;;;19.92;72.47
32456;BME280;18912;43.270;27.942;2022-12-10T02:47:22;97495.59;;;20.46;70.57
32456;BME280;18912;43.270;27.942;2022-12-10T02:49:51;97500.22;;;20.51;69.36
32456;BME280;18912;43.270;27.942;2022-12-10T02:52:19;97496.03;;;20.20;70.79
32456;BME280;18912;43.270;27.942;2022-12-10T02:54:47;97493.84;;;20.56;69.38
32456;BME280;18912;43.270;27.942;2022-12-10T03:00:19;97481.09;;;19.82;72.32
32456;BME280;18912;43.270;27.942;2022-12-10T03:05:35;97483.19;;;20.00;70.21
32456;BME280;18912;43.270;27.942;2022-12-10T03:08:17;97478.16;;;19.69;72.08
32456;BME280;18912;43.270;27.942;2022-12-10T03:11:06;97474.06;;;19.61;72.55
32456;BME280;18912;43.270;27.942;2022-12-10T03:16:10;97469.59;;;19.80;72.60
32456;BME280;18912;43.270;27.942;2022-12-10T03:18:37;97479.94;;;19.98;71.75
32456;BME280;18912;43.270;27.942;2022-12-10T03:21:05;97472.84;;;19.87;72.06
32456;BME280;18912;43.270;27.942;2022-12-10T03:23:35;97472.38;;;19.75;72.67
32456;BME280;18912;43.270;27.942;2022-12-10T03:26:03;97480.50;;;19.95;71.93
32456;BME280;18912;43.270;27.942;2022-12-10T03:28:34;97475.03;;;19.90;72.62
32456;BME280;18912;43.270;27.942;2022-12-10T03:31:03;97480.72;;;19.30;75.24
32456;BME280;18912;43.270;27.942;2022-12-10T03:33:29;97469.34;;;19.77;74.15
32456;BME280;18912;43.270;27.942;2022-12-10T03:35:55;97473.22;;;19.61;74.80
32456;BME280;18912;43.270;27.942;2022-12-10T03:38:21;97470.72;;;19.79;73.40
32456;BME280;18912;43.270;27.942;2022-12-10T03:40:46;97478.53;;;19.37;75.55
32456;BME280;18912;43.270;27.942;2022-12-10T03:43:13;97470.84;;;20.03;73.29
32456;BME280;18912;43.270;27.942;2022-12-10T03:45:39;97461.34;;;19.85;73.23
32456;BME280;18912;43.270;27.942;2022-12-10T03:48:04;97457.44;;;19.17;76.19
32456;BME280;18912;43.270;27.942;2022-12-10T03:50:30;97459.59;;;19.45;75.42
32456;BME280;18912;43.270;27.942;2022-12-10T03:52:55;97453.84;;;19.42;75.00
32456;BME280;18912;43.270;27.942;2022-12-10T03:58:42;97452.63;;;19.68;74.67
32456;BME280;18912;43.270;27.942;2022-12-10T04:01:08;97446.63;;;19.71;73.61
32456;BME280;18912;43.270;27.942;2022-12-10T04:03:35;97444.53;;;19.43;74.68
32456;BME280;18912;43.270;27.942;2022-12-10T04:06:03;97449.16;;;20.11;70.79
32456;BME280;18912;43.270;27.942;2022-12-10T04:08:29;97436.03;;;19.44;73.93
32456;BME280;18912;43.270;27.942;2022-12-10T04:10:55;97436.88;;;19.40;74.18
32456;BME280;18912;43.270;27.942;2022-12-10T04:13:20;97433.59;;;19.33;74.79
32456;BME280;18912;43.270;27.942;2022-12-10T04:16:05;97429.25;;;19.02;75.31
32456;BME280;18912;43.270;27.942;2022-12-10T04:18:48;97435.31;;;18.89;76.76
32456;BME280;18912;43.270;27.942;2022-12-10T04:21:14;97435.78;;;19.21;75.63
32456;BME280;18912;43.270;27.942;2022-12-10T04:24:11;97435.78;;;19.21;75.54
32456;BME280;18912;43.270;27.942;2022-12-10T04:26:57;97442.91;;;19.27;74.47
32456;BME280;18912;43.270;27.942;2022-12-10T04:29:26;97439.03;;;19.48;73.93
32456;BME280;18912;43.270;27.942;2022-12-10T04:31:52;97437.72;;;19.35;74.30
32456;BME280;18912;43.270;27.942;2022-12-10T04:34:19;97435.78;;;19.31;74.66
32456;BME280;18912;43.270;27.942;2022-12-10T04:36:44;97439.09;;;19.28;74.90
32456;BME280;18912;43.270;27.942;2022-12-10T04:39:10;97430.88;;;19.33;75.35
32456;BME280;18912;43.270;27.942;2022-12-10T04:41:45;97436.22;;;19.63;72.51
32456;BME280;18912;43.270;27.942;2022-12-10T04:44:11;97442.38;;;19.35;74.15
32456;BME280;18912;43.270;27.942;2022-12-10T04:46:37;97441.81;;;19.43;73.76
32456;BME280;18912;43.270;27.942;2022-12-10T04:49:04;97427.19;;;20.06;70.68
32456;BME280;18912;43.270;27.942;2022-12-10T04:51:31;97436.88;;;19.45;73.27
32456;BME280;18912;43.270;27.942;2022-12-10T04:53:57;97437.72;;;19.89;70.45
32456;BME280;18912;43.270;27.942;2022-12-10T04:56:23;97433.97;;;19.75;71.30
32456;BME280;18912;43.270;27.942;2022-12-10T04:58:48;97441.97;;;19.72;71.44
32456;BME280;18912;43.270;27.942;2022-12-10T05:01:15;97443.13;;;19.55;72.30
32456;BME280;18912;43.270;27.942;2022-12-10T05:03:41;97455.75;;;20.00;70.40
32456;BME280;18912;43.270;27.942;2022-12-10T05:06:09;97448.28;;;19.67;71.33
32456;BME280;18912;43.270;27.942;2022-12-10T05:08:36;97454.34;;;19.49;71.43
32456;BME280;18912;43.270;27.942;2022-12-10T05:11:04;97449.06;;;19.73;71.09
32456;BME280;18912;43.270;27.942;2022-12-10T05:13:30;97452.59;;;19.78;70.16
32456;BME280;18912;43.270;27.942;2022-12-10T05:15:55;97460.78;;;19.83;70.13
32456;BME280;18912;43.270;27.942;2022-12-10T05:18:21;97465.63;;;19.52;72.17
32456;BME280;18912;43.270;27.942;2022-12-10T05:20:47;97468.09;;;20.03;69.55
32456;BME280;18912;43.270;27.942;2022-12-10T05:23:12;97460.88;;;19.73;70.33
32456;BME280;18912;43.270;27.942;2022-12-10T05:26:11;97471.28;;;19.66;70.50
32456;BME280;18912;43.270;27.942;2022-12-10T05:28:52;97465.22;;;19.79;69.25
32456;BME280;18912;43.270;27.942;2022-12-10T05:31:23;97470.44;;;19.76;69.60
32456;BME280;18912;43.270;27.942;2022-12-10T05:33:50;97476.84;;;19.56;70.78
32456;BME280;18912;43.270;27.942;2022-12-10T05:36:18;97469.34;;;19.77;70.01
32456;BME280;18912;43.270;27.942;2022-12-10T05:38:44;97464.97;;;19.71;70.63
32456;BME280;18912;43.270;27.942;2022-12-10T05:41:16;97469.81;;;19.94;68.67
32456;BME280;18912;43.270;27.942;2022-12-10T05:43:42;97460.25;;;19.86;69.17
32456;BME280;18912;43.270;27.942;2022-12-10T05:46:14;97470.00;;;20.07;68.40
32456;BME280;18912;43.270;27.942;2022-12-10T05:48:39;97466.56;;;19.82;68.58
32456;BME280;18912;43.270;27.942;2022-12-10T05:51:10;97469.75;;;19.45;71.36
32456;BME280;18912;43.270;27.942;2022-12-10T05:53:36;97473.81;;;19.58;71.00
32456;BME280;18912;43.270;27.942;2022-12-10T05:56:04;97480.03;;;19.78;69.83
32456;BME280;18912;43.270;27.942;2022-12-10T05:58:31;97477.72;;;20.00;69.24
32456;BME280;18912;43.270;27.942;2022-12-10T06:00:57;97472.69;;;20.17;68.62
32456;BME280;18912;43.270;27.942;2022-12-10T06:03:24;97479.13;;;19.93;68.73
32456;BME280;18912;43.270;27.942;2022-12-10T06:05:49;97481.69;;;19.79;69.52
32456;BME280;18912;43.270;27.942;2022-12-10T06:08:15;97480.50;;;19.95;69.06
32456;BME280;18912;43.270;27.942;2022-12-10T06:10:40;97483.19;;;20.05;68.69
32456;BME280;18912;43.270;27.942;2022-12-10T06:13:06;97486.34;;;19.74;69.96
32456;BME280;18912;43.270;27.942;2022-12-10T06:15:32;97475.84;;;19.91;69.16
32456;BME280;18912;43.270;27.942;2022-12-10T06:17:58;97467.56;;;20.01;68.60
32456;BME280;18912;43.270;27.942;2022-12-10T06:20:25;97465.66;;;20.01;68.16
32456;BME280;18912;43.270;27.942;2022-12-10T06:22:51;97469.88;;;19.79;69.10
32456;BME280;18912;43.270;27.942;2022-12-10T06:25:17;97467.97;;;19.79;69.62
32456;BME280;18912;43.270;27.942;2022-12-10T06:27:43;97462.75;;;19.78;69.82
32456;BME280;18912;43.270;27.942;2022-12-10T06:30:09;97468.81;;;19.75;70.38
32456;BME280;18912;43.270;27.942;2022-12-10T06:32:34;97479.88;;;19.44;71.62
32456;BME280;18912;43.270;27.942;2022-12-10T06:35:00;97475.72;;;19.62;71.07
32456;BME280;18912;43.270;27.942;2022-12-10T06:37:25;97484.84;;;20.01;69.55
32456;BME280;18912;43.270;27.942;2022-12-10T06:39:51;97474.38;;;20.18;68.55
32456;BME280;18912;43.270;27.942;2022-12-10T06:42:20;97474.53;;;19.78;70.16
32456;BME280;18912;43.270;27.942;2022-12-10T06:44:46;97470.53;;;19.55;71.16
32456;BME280;18912;43.270;27.942;2022-12-10T06:47:12;97476.28;;;19.54;71.46
32456;BME280;18912;43.270;27.942;2022-12-10T06:49:38;97483.31;;;19.80;70.71
32456;BME280;18912;43.270;27.942;2022-12-10T06:52:03;97476.88;;;20.05;69.27
32456;BME280;18912;43.270;27.942;2022-12-10T06:54:30;97493.13;;;19.96;69.74
32456;BME280;18912;43.270;27.942;2022-12-10T06:56:55;97486.94;;;19.61;70.95
32456;BME280;18912;43.270;27.942;2022-12-10T06:59:21;97497.34;;;20.27;68.68
32456;BME280;18912;43.270;27.942;2022-12-10T07:01:47;97497.31;;;19.79;70.77
32456;BME280;18912;43.270;27.942;2022-12-10T07:04:12;97497.84;;;20.34;68.70
32456;BME280;18912;43.270;27.942;2022-12-10T07:06:38;97488.22;;;19.83;69.81
32456;BME280;18912;43.270;27.942;2022-12-10T07:09:03;97482.66;;;20.03;69.48
32456;BME280;18912;43.270;27.942;2022-12-10T07:11:29;97494.50;;;20.48;67.65
32456;BME280;18912;43.270;27.942;2022-12-10T07:13:56;97483.16;;;20.54;68.13
32456;BME280;18912;43.270;27.942;2022-12-10T07:16:24;97473.13;;;20.39;68.32
32456;BME280;18912;43.270;27.942;2022-12-10T07:18:51;97474.97;;;20.83;66.46
32456;BME280;18912;43.270;27.942;2022-12-10T07:21:22;97478.50;;;20.88;65.98
32456;BME280;18912;43.270;27.942;2022-12-10T07:23:49;97482.19;;;21.07;65.76
32456;BME280;18912;43.270;27.942;2022-12-10T07:26:15;97477.03;;;20.67;67.40
32456;BME280;18912;43.270;27.942;2022-12-10T07:28:40;97473.63;;;20.80;66.42
32456;BME280;18912;43.270;27.942;2022-12-10T07:31:08;97482.19;;;21.07;65.39
32456;BME280;18912;43.270;27.942;2022-12-10T07:33:34;97471.63;;;20.91;65.90
32456;BME280;18912;43.270;27.942;2022-12-10T07:36:05;97476.81;;;20.92;66.59
32456;BME280;18912;43.270;27.942;2022-12-10T07:38:31;97469.09;;;20.66;67.21
32456;BME280;18912;43.270;27.942;2022-12-10T07:40:56;97464.88;;;21.07;65.97
32456;BME280;18912;43.270;27.942;2022-12-10T07:43:22;97463.94;;;20.88;66.70
32456;BME280;18912;43.270;27.942;2022-12-10T07:45:47;97454.53;;;21.27;66.25
32456;BME280;18912;43.270;27.942;2022-12-10T07:48:13;97454.81;;;21.50;64.84
32456;BME280;18912;43.270;27.942;2022-12-10T07:50:39;97457.22;;;21.32;64.93
32456;BME280;18912;43.270;27.942;2022-12-10T07:53:05;97441.28;;;21.29;65.25
32456;BME280;18912;43.270;27.942;2022-12-10T07:55:31;97437.75;;;21.29;65.54
32456;BME280;18912;43.270;27.942;2022-12-10T07:57:57;97439.28;;;21.11;66.45
32456;BME280;18912;43.270;27.942;2022-12-10T08:00:22;97441.66;;;21.23;66.38
32456;BME280;18912;43.270;27.942;2022-12-10T08:02:48;97436.19;;;20.89;67.61
32456;BME280;18912;43.270;27.942;2022-12-10T08:05:13;97435.69;;;21.16;66.70
32456;BME280;18912;43.270;27.942;2022-12-10T08:07:38;97431.13;;;21.06;66.48
32456;BME280;18912;43.270;27.942;2022-12-10T08:10:04;97438.78;;;20.76;68.55
32456;BME280;18912;43.270;27.942;2022-12-10T08:12:30;97429.44;;;20.77;68.70
32456;BME280;18912;43.270;27.942;2022-12-10T08:14:55;97427.06;;;20.65;68.90
32456;BME280;18912;43.270;27.942;2022-12-10T08:17:21;97420.00;;;20.59;69.28
32456;BME280;18912;43.270;27.942;2022-12-10T08:19:46;97423.13;;;20.48;69.88
32456;BME280;18912;43.270;27.942;2022-12-10T08:22:12;97422.34;;;20.71;69.32
32456;BME280;18912;43.270;27.942;2022-12-10T08:24:37;97443.41;;;20.80;68.25
32456;BME280;18912;43.270;27.942;2022-12-10T08:27:03;97425.38;;;20.69;68.73
32456;BME280;18912;43.270;27.942;2022-12-10T08:29:28;97437.13;;;20.75;69.28
32456;BME280;18912;43.270;27.942;2022-12-10T08:31:54;97433.09;;;21.24;67.38
32456;BME280;18912;43.270;27.942;2022-12-10T08:34:19;97431.41;;;21.00;68.19
32456;BME280;18912;43.270;27.942;2022-12-10T08:36:45;97432.78;;;20.74;68.31
32456;BME280;18912;43.270;27.942;2022-12-10T08:39:11;97432.88;;;21.21;66.94
32456;BME280;18912;43.270;27.942;2022-12-10T08:41:41;97424.34;;;21.46;66.02
32456;BME280;18912;43.270;27.942;2022-12-10T08:44:06;97422.38;;;21.70;65.00
32456;BME280;18912;43.270;27.942;2022-12-10T08:46:32;97419.06;;;21.50;65.95
32456;BME280;18912;43.270;27.942;2022-12-10T08:48:57;97420.22;;;22.09;63.60
32456;BME280;18912;43.270;27.942;2022-12-10T08:51:23;97408.41;;;21.67;64.78
32456;BME280;18912;43.270;27.942;2022-12-10T08:53:49;97413.00;;;21.29;66.51
32456;BME280;18912;43.270;27.942;2022-12-10T08:56:14;97419.59;;;21.52;65.47
32456;BME280;18912;43.270;27.942;2022-12-10T08:58:40;97409.22;;;21.91;64.28
32456;BME280;18912;43.270;27.942;2022-12-10T09:01:11;97414.13;;;22.12;63.50
32456;BME280;18912;43.270;27.942;2022-12-10T09:03:37;97403.56;;;21.77;64.79
32456;BME280;18912;43.270;27.942;2022-12-10T09:06:04;97399.97;;;22.38;62.87
32456;BME280;18912;43.270;27.942;2022-12-10T09:08:30;97404.50;;;22.28;62.17
32456;BME280;18912;43.270;27.942;2022-12-10T09:10:56;97397.91;;;22.29;61.86
32456;BME280;18912;43.270;27.942;2022-12-10T09:13:21;97390.59;;;21.83;63.52
32456;BME280;18912;43.270;27.942;2022-12-10T09:15:51;97389.44;;;22.77;61.15
32456;BME280;18912;43.270;27.942;2022-12-10T09:18:17;97382.66;;;23.15;59.77
32456;BME280;18912;43.270;27.942;2022-12-10T09:20:43;97384.81;;;23.59;57.63
32456;BME280;18912;43.270;27.942;2022-12-10T09:23:08;97384.47;;;23.87;56.47
32456;BME280;18912;43.270;27.942;2022-12-10T09:25:34;97389.03;;;24.41;55.68
32456;BME280;18912;43.270;27.942;2022-12-10T09:27:59;97379.94;;;24.05;55.49
32456;BME280;18912;43.270;27.942;2022-12-10T09:30:25;97374.19;;;23.52;56.24
32456;BME280;18912;43.270;27.942;2022-12-10T09:32:50;97374.38;;;23.56;57.33
32456;BME280;18912;43.270;27.942;2022-12-10T09:35:16;97372.97;;;23.31;58.04
32456;BME280;18912;43.270;27.942;2022-12-10T09:37:41;97367.84;;;23.52;58.31
32456;BME280;18912;43.270;27.942;2022-12-10T09:40:09;97365.97;;;24.01;56.32
32456;BME280;18912;43.270;27.942;2022-12-10T09:45:37;97357.41;;;24.25;55.07
32456;BME280;18912;43.270;27.942;2022-12-10T09:50:52;97356.28;;;23.77;55.56
32456;BME280;18912;43.270;27.942;2022-12-10T09:53:21;97357.28;;;24.30;54.53
32456;BME280;18912;43.270;27.942;2022-12-10T09:55:47;97345.66;;;23.84;55.29
32456;BME280;18912;43.270;27.942;2022-12-10T09:58:18;97342.34;;;23.33;56.63
32456;BME280;18912;43.270;27.942;2022-12-10T10:03:24;97332.81;;;23.52;56.49
32456;BME280;18912;43.270;27.942;2022-12-10T10:05:52;97331.53;;;23.36;56.73
32456;BME280;18912;43.270;27.942;2022-12-10T10:08:32;97322.91;;;22.70;58.15
32456;BME280;18912;43.270;27.942;2022-12-10T10:11:02;97324.03;;;23.37;57.80
32456;BME280;18912;43.270;27.942;2022-12-10T10:13:39;97318.31;;;23.47;57.20
32456;BME280;18912;43.270;27.942;2022-12-10T10:16:26;97319.13;;;22.93;57.48
32456;BME280;18912;43.270;27.942;2022-12-10T10:18:58;97311.91;;;23.51;56.22
32456;BME280;18912;43.270;27.942;2022-12-10T10:21:27;97311.66;;;23.61;55.91
32456;BME280;18912;43.270;27.942;2022-12-10T10:23:55;97301.03;;;23.68;54.62
32456;BME280;18912;43.270;27.942;2022-12-10T10:26:20;97306.78;;;23.17;56.30
32456;BME280;18912;43.270;27.942;2022-12-10T10:28:47;97298.81;;;23.30;55.44
32456;BME280;18912;43.270;27.942;2022-12-10T10:31:22;97292.50;;;23.02;56.07
32456;BME280;18912;43.270;27.942;2022-12-10T10:33:51;97282.50;;;23.06;56.40
32456;BME280;18912;43.270;27.942;2022-12-10T10:36:24;97277.59;;;23.03;56.21
32456;BME280;18912;43.270;27.942;2022-12-10T10:38:50;97278.63;;;23.07;55.38
32456;BME280;18912;43.270;27.942;2022-12-10T10:41:15;97282.69;;;22.96;55.72
32456;BME280;18912;43.270;27.942;2022-12-10T10:43:42;97276.25;;;23.14;55.54
32456;BME280;18912;43.270;27.942;2022-12-10T10:48:38;97265.91;;;23.47;54.48
32456;BME280;18912;43.270;27.942;2022-12-10T10:53:45;97279.47;;;23.92;53.27
32456;BME280;18912;43.270;27.942;2022-12-10T10:56:12;97282.59;;;23.77;53.77
32456;BME280;18912;43.270;27.942;2022-12-10T11:01:45;97277.31;;;23.67;53.58
32456;BME280;18912;43.270;27.942;2022-12-10T11:04:13;97265.53;;;23.40;53.91
32456;BME280;18912;43.270;27.942;2022-12-10T11:06:43;97262.47;;;23.41;53.82
32456;BME280;18912;43.270;27.942;2022-12-10T11:09:26;97254.69;;;23.79;52.94
32456;BME280;18912;43.270;27.942;2022-12-10T11:12:05;97257.94;;;23.81;53.25
32456;BME280;18912;43.270;27.942;2022-12-10T11:14:38;97260.91;;;23.84;52.62
32456;BME280;18912;43.270;27.942;2022-12-10T11:19:41;97257.06;;;23.23;53.11
32456;BME280;18912;43.270;27.942;2022-12-10T11:22:20;97257.38;;;22.94;53.15
32456;BME280;18912;43.270;27.942;2022-12-10T11:24:47;97274.09;;;22.57;54.06
32456;BME280;18912;43.270;27.942;2022-12-10T11:27:24;97268.31;;;22.72;54.16
32456;BME280;18912;43.270;27.942;2022-12-10T11:30:06;97265.69;;;23.57;52.42
32456;BME280;18912;43.270;27.942;2022-12-10T11:35:44;97257.88;;;23.23;52.29
32456;BME280;18912;43.270;27.942;2022-12-10T11:44:15;97243.78;;;22.57;53.65
32456;BME280;18912;43.270;27.942;2022-12-10T12:00:25;97231.31;;;23.76;51.54
32456;BME280;18912;43.270;27.942;2022-12-10T12:06:11;97227.03;;;24.37;50.09
32456;BME280;18912;43.270;27.942;2022-12-10T12:09:03;97234.13;;;24.29;49.75
32456;BME280;18912;43.270;27.942;2022-12-10T12:12:13;97229.44;;;23.85;50.55
32456;BME280;18912;43.270;27.942;2022-12-10T12:14:51;97232.44;;;23.75;50.58
32456;BME280;18912;43.270;27.942;2022-12-10T12:17:32;97232.59;;;23.57;51.36
32456;BME280;18912;43.270;27.942;2022-12-10T12:20:17;97230.59;;;23.35;52.29
32456;BME280;18912;43.270;27.942;2022-12-10T12:22:58;97236.25;;;23.88;51.07
32456;BME280;18912;43.270;27.942;2022-12-10T12:25:34;97237.56;;;23.68;51.58
32456;BME280;18912;43.270;27.942;2022-12-10T12:28:22;97239.88;;;23.75;51.40
32456;BME280;18912;43.270;27.942;2022-12-10T12:30:57;97240.03;;;23.34;52.47
32456;BME280;18912;43.270;27.942;2022-12-10T12:33:43;97232.25;;;23.23;52.45
32456;BME280;18912;43.270;27.942;2022-12-10T12:36:22;97235.59;;;23.69;51.87
32456;BME280;18912;43.270;27.942;2022-12-10T12:41:48;97216.19;;;23.74;51.32
32456;BME280;18912;43.270;27.942;2022-12-10T12:44:28;97213.41;;;23.52;51.93
32456;BME280;18912;43.270;27.942;2022-12-10T12:46:56;97206.63;;;23.58;51.32
32456;BME280;18912;43.270;27.942;2022-12-10T12:51:58;97197.75;;;23.25;51.98
32456;BME280;18912;43.270;27.942;2022-12-10T12:54:25;97189.91;;;23.05;52.25
32456;BME280;18912;43.270;27.942;2022-12-10T12:56:56;97202.47;;;23.11;51.90
32456;BME280;18912;43.270;27.942;2022-12-10T12:59:52;97194.53;;;23.67;50.33
32456;BME280;18912;43.270;27.942;2022-12-10T13:02:34;97198.41;;;23.44;50.84
32456;BME280;18912;43.270;27.942;2022-12-10T13:05:04;97190.78;;;23.63;50.38
32456;BME280;18912;43.270;27.942;2022-12-10T13:07:33;97189.75;;;23.37;51.01
32456;BME280;18912;43.270;27.942;2022-12-10T13:15:22;97181.59;;;24.21;49.52
32456;BME280;18912;43.270;27.942;2022-12-10T13:21:13;97181.19;;;23.83;49.79
32456;BME280;18912;43.270;27.942;2022-12-10T13:23:51;97186.22;;;23.59;50.83
32456;BME280;18912;43.270;27.942;2022-12-10T13:26:28;97180.00;;;23.75;50.32
32456;BME280;18912;43.270;27.942;2022-12-10T13:28:56;97187.53;;;24.36;49.55
32456;BME280;18912;43.270;27.942;2022-12-10T13:31:36;97189.56;;;24.22;49.55
32456;BME280;18912;43.270;27.942;2022-12-10T13:39:33;97189.78;;;23.81;50.59
32456;BME280;18912;43.270;27.942;2022-12-10T13:50:03;97172.63;;;24.06;49.89
32456;BME280;18912;43.270;27.942;2022-12-10T14:08:34;97174.06;;;23.82;50.30
32456;BME280;18912;43.270;27.942;2022-12-10T14:11:02;97172.88;;;23.74;50.63
32456;BME280;18912;43.270;27.942;2022-12-10T14:13:54;97179.59;;;23.46;51.16
32456;BME280;18912;43.270;27.942;2022-12-10T14:16:23;97193.75;;;23.31;51.77
32456;BME280;18912;43.270;27.942;2022-12-10T14:18:54;97181.41;;;23.15;52.13
32456;BME280;18912;43.270;27.942;2022-12-10T14:21:21;97162.97;;;23.02;52.29
32456;BME280;18912;43.270;27.942;2022-12-10T14:23:48;97170.47;;;23.10;52.21
32456;BME280;18912;43.270;27.942;2022-12-10T14:26:21;97160.44;;;22.92;52.81
32456;BME280;18912;43.270;27.942;2022-12-10T14:28:58;97157.38;;;22.66;53.44
32456;BME280;18912;43.270;27.942;2022-12-10T14:31:29;97153.91;;;22.34;54.45
32456;BME280;18912;43.270;27.942;2022-12-10T14:34:00;97160.72;;;22.22;54.73
32456;BME280;18912;43.270;27.942;2022-12-10T14:36:39;97149.00;;;22.30;54.67
32456;BME280;18912;43.270;27.942;2022-12-10T14:39:17;97147.06;;;22.17;55.20
32456;BME280;18912;43.270;27.942;2022-12-10T14:41:45;97158.41;;;22.43;54.48
32456;BME280;18912;43.270;27.942;2022-12-10T14:44:14;97153.09;;;22.87;53.19
32456;BME280;18912;43.270;27.942;2022-12-10T14:46:41;97160.81;;;22.99;52.70
32456;BME280;18912;43.270;27.942;2022-12-10T14:49:16;97162.53;;;23.08;52.37
32456;BME280;18912;43.270;27.942;2022-12-10T14:51:42;97164.69;;;23.11;52.46
32456;BME280;18912;43.270;27.942;2022-12-10T14:54:32;97159.38;;;23.15;52.35